Startpagina
METAR-TAF:

METAR-TAF

Vliegvelden :

Bahrein, Bahrein

Internationale luchthaven van Bahrein

breedte: 26-16N, lengte: 050-39E, hoogte: 2 m

Actueel weer

Dit bericht is 10 minuten geleden gemaakt, om 16:30 UTC
Wind 1 kt uit variabele richting
Temperatuur 32°C
Vochtigheid 34%
Druk 1009 hPa
Zicht: 8000 m

METAR: OBBI 301630Z VRB01KT 8000 NSC 32/14 Q1009 NOSIG

Tijdstip: 19:40 (16:40 UTC)

Verwachting

Dit bericht is 5 uur en het 40 minuten geleden gemaakt, om 11:00 UTC
Verwachting geldig van 30 om 12 UTC tot 01 om 18 UTC
Wind 10 kt uit het oostnoordoosten
Zicht: 7000 m
Kans 30% :
Tijdelijke
van 30 om 14 UTC tot 01 om 08 UTC
Wind 20 kt uit het noordnoordwesten met uitschieters tot 30 kt
Wijzigt naar
van 30 om 14 UTC tot 30 om 16 UTC
Wind 12 kt uit het noorden

TAF: OBBI 301100Z 3012/0118 06010KT 7000 NSC PROB30 TEMPO 3014/0108 33020G30KT BECMG 3014/3016 35012KT

Waarnemingen en weersverwachtingen van meer dan 4000 vliegvelden (METAR en TAF).

De beschikbare stations zijn de gele en rode punten op de kaart.

Ga met uw muis naar het station om de naam te zien.

Klik dan om waarnemingen en weersverwachtingen te zien.

kaart wijzigen: klik op de groene knoppen met een zwart kruis om in te zoomen, op de groene knop met een streepje om uit te zoomen of op de groene pijlen voor aangrenzende kaarten.


METAR-TAF: